sensor_id;sensor_type;location;lat;lon;timestamp;pressure;altitude;pressure_sealevel;temperature;humidity
47284;BME280;33017;51.074;17.004;2023-06-22T00:01:59;100313.72;;;27.91;51.49
47284;BME280;33017;51.074;17.004;2023-06-22T00:04:26;100316.47;;;27.91;51.54
47284;BME280;33017;51.074;17.004;2023-06-22T00:06:53;100311.25;;;27.94;51.43
47284;BME280;33017;51.074;17.004;2023-06-22T00:09:20;100317.06;;;27.93;51.58
47284;BME280;33017;51.074;17.004;2023-06-22T00:11:47;100318.13;;;27.92;51.46
47284;BME280;33017;51.074;17.004;2023-06-22T00:14:13;100322.06;;;27.96;51.41
47284;BME280;33017;51.074;17.004;2023-06-22T00:16:40;100338.16;;;27.99;51.23
47284;BME280;33017;51.074;17.004;2023-06-22T00:19:09;100331.44;;;27.95;51.65
47284;BME280;33017;51.074;17.004;2023-06-22T00:21:38;100326.19;;;27.93;51.79
47284;BME280;33017;51.074;17.004;2023-06-22T00:24:05;100328.63;;;27.90;51.82
47284;BME280;33017;51.074;17.004;2023-06-22T00:26:32;100338.91;;;27.94;51.57
47284;BME280;33017;51.074;17.004;2023-06-22T00:28:59;100340.34;;;27.97;51.61
47284;BME280;33017;51.074;17.004;2023-06-22T00:31:26;100343.00;;;27.92;51.62
47284;BME280;33017;51.074;17.004;2023-06-22T00:33:53;100348.03;;;27.95;51.73
47284;BME280;33017;51.074;17.004;2023-06-22T00:36:20;100356.84;;;27.92;51.71
47284;BME280;33017;51.074;17.004;2023-06-22T00:38:47;100352.66;;;27.89;51.79
47284;BME280;33017;51.074;17.004;2023-06-22T00:41:13;100348.75;;;27.85;51.77
47284;BME280;33017;51.074;17.004;2023-06-22T00:43:40;100350.91;;;27.83;51.90
47284;BME280;33017;51.074;17.004;2023-06-22T00:46:08;100359.81;;;27.85;52.04
47284;BME280;33017;51.074;17.004;2023-06-22T00:48:35;100363.06;;;27.82;51.88
47284;BME280;33017;51.074;17.004;2023-06-22T00:51:03;100363.66;;;27.84;52.09
47284;BME280;33017;51.074;17.004;2023-06-22T00:53:30;100362.97;;;27.77;52.14
47284;BME280;33017;51.074;17.004;2023-06-22T00:56:01;100362.75;;;27.79;51.98
47284;BME280;33017;51.074;17.004;2023-06-22T00:58:29;100367.66;;;27.77;52.27
47284;BME280;33017;51.074;17.004;2023-06-22T01:00:56;100365.41;;;27.74;52.21
47284;BME280;33017;51.074;17.004;2023-06-22T01:03:26;100361.81;;;27.73;52.22
47284;BME280;33017;51.074;17.004;2023-06-22T01:05:56;100362.97;;;27.77;52.26
47284;BME280;33017;51.074;17.004;2023-06-22T01:08:31;100368.00;;;27.80;51.91
47284;BME280;33017;51.074;17.004;2023-06-22T01:11:06;100370.75;;;27.80;51.94
47284;BME280;33017;51.074;17.004;2023-06-22T01:13:39;100376.91;;;27.82;51.96
47284;BME280;33017;51.074;17.004;2023-06-22T01:16:10;100373.53;;;27.80;52.21
47284;BME280;33017;51.074;17.004;2023-06-22T01:18:40;100381.25;;;27.78;52.23
47284;BME280;33017;51.074;17.004;2023-06-22T01:21:08;100378.97;;;27.75;52.03
47284;BME280;33017;51.074;17.004;2023-06-22T01:28:49;100384.50;;;27.75;52.39
47284;BME280;33017;51.074;17.004;2023-06-22T01:31:17;100385.94;;;27.78;52.37
47284;BME280;33017;51.074;17.004;2023-06-22T01:33:47;100380.91;;;27.75;52.19
47284;BME280;33017;51.074;17.004;2023-06-22T01:36:15;100390.03;;;27.75;52.12
47284;BME280;33017;51.074;17.004;2023-06-22T01:38:45;100385.09;;;27.77;52.32
47284;BME280;33017;51.074;17.004;2023-06-22T01:41:13;100386.78;;;27.78;52.08
47284;BME280;33017;51.074;17.004;2023-06-22T01:43:40;100384.50;;;27.75;52.17
47284;BME280;33017;51.074;17.004;2023-06-22T01:46:07;100387.00;;;27.77;52.32
47284;BME280;33017;51.074;17.004;2023-06-22T01:48:34;100381.41;;;27.72;52.08
47284;BME280;33017;51.074;17.004;2023-06-22T01:51:02;100380.56;;;27.71;52.25
47284;BME280;33017;51.074;17.004;2023-06-22T01:53:29;100382.50;;;27.71;52.13
47284;BME280;33017;51.074;17.004;2023-06-22T01:55:56;100387.72;;;27.67;52.18
47284;BME280;33017;51.074;17.004;2023-06-22T01:58:23;100390.13;;;27.64;52.28
47284;BME280;33017;51.074;17.004;2023-06-22T02:01:26;100389.56;;;27.62;52.50
47284;BME280;33017;51.074;17.004;2023-06-22T02:03:46;100330.38;;;27.29;52.29
47284;BME280;33017;51.074;17.004;2023-06-22T02:06:16;100378.72;;;27.60;52.34
47284;BME280;33017;51.074;17.004;2023-06-22T02:08:48;100377.16;;;27.64;52.33
47284;BME280;33017;51.074;17.004;2023-06-22T02:11:18;100379.06;;;27.64;52.14
47284;BME280;33017;51.074;17.004;2023-06-22T02:13:45;100390.13;;;27.64;52.06
47284;BME280;33017;51.074;17.004;2023-06-22T02:16:12;100386.59;;;27.68;52.00
47284;BME280;33017;51.074;17.004;2023-06-22T02:18:45;100386.19;;;27.59;52.33
47284;BME280;33017;51.074;17.004;2023-06-22T02:21:12;100379.25;;;27.57;52.34
47284;BME280;33017;51.074;17.004;2023-06-22T02:23:40;100384.41;;;27.53;52.56
47284;BME280;33017;51.074;17.004;2023-06-22T02:26:07;100387.78;;;27.55;52.26
47284;BME280;33017;51.074;17.004;2023-06-22T02:28:34;100382.84;;;27.57;52.34
47284;BME280;33017;51.074;17.004;2023-06-22T02:31:01;100388.03;;;27.54;52.63
47284;BME280;33017;51.074;17.004;2023-06-22T02:33:28;100384.69;;;27.52;52.53
47284;BME280;33017;51.074;17.004;2023-06-22T02:35:54;100398.41;;;27.47;52.66
47284;BME280;33017;51.074;17.004;2023-06-22T02:38:21;100386.53;;;27.46;52.55
47284;BME280;33017;51.074;17.004;2023-06-22T02:40:51;100384.91;;;27.50;52.60
47284;BME280;33017;51.074;17.004;2023-06-22T02:43:17;100388.19;;;27.47;52.56
47284;BME280;33017;51.074;17.004;2023-06-22T02:45:44;100391.56;;;27.49;52.61
47284;BME280;33017;51.074;17.004;2023-06-22T02:48:11;100383.78;;;27.46;52.66
47284;BME280;33017;51.074;17.004;2023-06-22T02:50:38;100377.63;;;27.44;52.48
47284;BME280;33017;51.074;17.004;2023-06-22T02:53:05;100378.47;;;27.45;52.51
47284;BME280;33017;51.074;17.004;2023-06-22T02:55:35;100394.69;;;27.41;52.49
47284;BME280;33017;51.074;17.004;2023-06-22T02:58:02;100397.44;;;27.41;52.58
47284;BME280;33017;51.074;17.004;2023-06-22T03:00:34;100400.84;;;27.43;52.65
47284;BME280;33017;51.074;17.004;2023-06-22T03:03:00;100399.63;;;27.39;52.63
47284;BME280;33017;51.074;17.004;2023-06-22T03:05:27;100398.91;;;27.44;52.51
47284;BME280;33017;51.074;17.004;2023-06-22T03:07:57;100393.03;;;27.40;52.61
47284;BME280;33017;51.074;17.004;2023-06-22T03:10:24;100405.72;;;27.41;52.70
47284;BME280;33017;51.074;17.004;2023-06-22T03:12:51;100404.81;;;27.36;52.77
47284;BME280;33017;51.074;17.004;2023-06-22T03:15:18;100404.56;;;27.37;52.73
47284;BME280;33017;51.074;17.004;2023-06-22T03:17:46;100405.66;;;27.36;52.59
47284;BME280;33017;51.074;17.004;2023-06-22T03:20:13;100411.16;;;27.36;52.95
47284;BME280;33017;51.074;17.004;2023-06-22T03:22:41;100416.97;;;27.35;52.86
47284;BME280;33017;51.074;17.004;2023-06-22T03:25:08;100421.28;;;27.31;53.18
47284;BME280;33017;51.074;17.004;2023-06-22T03:27:42;100422.47;;;27.35;52.74
47284;BME280;33017;51.074;17.004;2023-06-22T03:30:13;100413.59;;;27.33;52.76
47284;BME280;33017;51.074;17.004;2023-06-22T03:32:40;100419.47;;;27.36;52.88
47284;BME280;33017;51.074;17.004;2023-06-22T03:35:07;100427.50;;;27.38;52.49
47284;BME280;33017;51.074;17.004;2023-06-22T03:37:35;100428.09;;;27.40;52.77
47284;BME280;33017;51.074;17.004;2023-06-22T03:40:02;100436.50;;;27.45;52.66
47284;BME280;33017;51.074;17.004;2023-06-22T03:42:33;100440.94;;;27.46;52.61
47284;BME280;33017;51.074;17.004;2023-06-22T03:45:02;100435.28;;;27.41;52.79
47284;BME280;33017;51.074;17.004;2023-06-22T03:47:30;100425.25;;;27.35;52.97
47284;BME280;33017;51.074;17.004;2023-06-22T03:49:57;100429.66;;;27.36;52.77
47284;BME280;33017;51.074;17.004;2023-06-22T03:52:24;100431.34;;;27.37;52.87
47284;BME280;33017;51.074;17.004;2023-06-22T03:54:51;100435.78;;;27.38;52.71
47284;BME280;33017;51.074;17.004;2023-06-22T03:57:18;100439.63;;;27.37;52.74
47284;BME280;33017;51.074;17.004;2023-06-22T03:59:45;100441.56;;;27.36;52.98
47284;BME280;33017;51.074;17.004;2023-06-22T04:02:12;100444.31;;;27.36;53.04
47284;BME280;33017;51.074;17.004;2023-06-22T04:04:39;100452.94;;;27.40;52.87
47284;BME280;33017;51.074;17.004;2023-06-22T04:07:06;100451.03;;;27.40;52.93
47284;BME280;33017;51.074;17.004;2023-06-22T04:09:32;100443.81;;;27.39;52.87
47284;BME280;33017;51.074;17.004;2023-06-22T04:12:00;100455.94;;;27.38;53.02
47284;BME280;33017;51.074;17.004;2023-06-22T04:14:27;100452.50;;;27.43;52.73
47284;BME280;33017;51.074;17.004;2023-06-22T04:16:53;100454.97;;;27.44;52.73
47284;BME280;33017;51.074;17.004;2023-06-22T04:19:20;100455.59;;;27.46;52.70
47284;BME280;33017;51.074;17.004;2023-06-22T04:21:47;100466.16;;;27.49;52.81
47284;BME280;33017;51.074;17.004;2023-06-22T04:24:15;100460.38;;;27.51;52.56
47284;BME280;33017;51.074;17.004;2023-06-22T04:26:42;100454.25;;;27.49;52.68
47284;BME280;33017;51.074;17.004;2023-06-22T04:29:11;100464.97;;;27.45;52.96
47284;BME280;33017;51.074;17.004;2023-06-22T04:31:38;100461.13;;;27.46;52.70
47284;BME280;33017;51.074;17.004;2023-06-22T04:34:05;100458.09;;;27.48;53.02
47284;BME280;33017;51.074;17.004;2023-06-22T04:36:40;100463.47;;;27.54;52.72
47284;BME280;33017;51.074;17.004;2023-06-22T04:39:08;100457.09;;;27.54;52.46
47284;BME280;33017;51.074;17.004;2023-06-22T04:41:36;100464.91;;;27.57;52.88
47284;BME280;33017;51.074;17.004;2023-06-22T04:44:12;100462.41;;;27.55;52.76
47284;BME280;33017;51.074;17.004;2023-06-22T04:46:39;100468.22;;;27.59;52.52
47284;BME280;33017;51.074;17.004;2023-06-22T04:49:07;100469.16;;;27.65;52.54
47284;BME280;33017;51.074;17.004;2023-06-22T04:51:37;100479.97;;;27.66;52.31
47284;BME280;33017;51.074;17.004;2023-06-22T04:54:04;100478.78;;;27.62;52.62
47284;BME280;33017;51.074;17.004;2023-06-22T04:56:32;100486.00;;;27.63;52.57
47284;BME280;33017;51.074;17.004;2023-06-22T04:58:59;100484.94;;;27.64;52.75
47284;BME280;33017;51.074;17.004;2023-06-22T05:01:26;100482.91;;;27.59;53.02
47284;BME280;33017;51.074;17.004;2023-06-22T05:03:52;100480.75;;;27.62;52.58
47284;BME280;33017;51.074;17.004;2023-06-22T05:06:23;100489.34;;;27.65;52.58
47284;BME280;33017;51.074;17.004;2023-06-22T05:08:53;100482.97;;;27.65;52.70
47284;BME280;33017;51.074;17.004;2023-06-22T05:11:26;100486.34;;;27.67;52.68
47284;BME280;33017;51.074;17.004;2023-06-22T05:13:54;100487.69;;;27.64;52.57
47284;BME280;33017;51.074;17.004;2023-06-22T05:16:22;100482.75;;;27.66;52.64
47284;BME280;33017;51.074;17.004;2023-06-22T05:18:53;100486.94;;;27.69;52.42
47284;BME280;33017;51.074;17.004;2023-06-22T05:21:24;100481.75;;;27.72;52.29
47284;BME280;33017;51.074;17.004;2023-06-22T05:23:51;100485.00;;;27.69;52.64
47284;BME280;33017;51.074;17.004;2023-06-22T05:26:21;100473.25;;;27.62;52.61
47284;BME280;33017;51.074;17.004;2023-06-22T05:28:48;100475.53;;;27.65;52.69
47284;BME280;33017;51.074;17.004;2023-06-22T05:31:15;100473.69;;;27.71;52.51
47284;BME280;33017;51.074;17.004;2023-06-22T05:33:42;100470.44;;;27.74;52.35
47284;BME280;33017;51.074;17.004;2023-06-22T05:36:10;100478.72;;;27.74;52.55
47284;BME280;33017;51.074;17.004;2023-06-22T05:38:36;100471.88;;;27.76;52.34
47284;BME280;33017;51.074;17.004;2023-06-22T05:41:03;100479.56;;;27.74;52.18
47284;BME280;33017;51.074;17.004;2023-06-22T05:43:30;100485.09;;;27.74;52.11
47284;BME280;33017;51.074;17.004;2023-06-22T05:45:57;100473.44;;;27.72;51.89
47284;BME280;33017;51.074;17.004;2023-06-22T05:48:24;100478.63;;;27.69;51.93
47284;BME280;33017;51.074;17.004;2023-06-22T05:50:51;100477.22;;;27.66;51.72
47284;BME280;33017;51.074;17.004;2023-06-22T05:53:18;100482.25;;;27.69;51.29
47284;BME280;33017;51.074;17.004;2023-06-22T05:55:45;100482.25;;;27.69;51.47
47284;BME280;33017;51.074;17.004;2023-06-22T05:58:12;100485.69;;;27.76;51.34
47284;BME280;33017;51.074;17.004;2023-06-22T06:00:40;100486.00;;;27.80;51.25
47284;BME280;33017;51.074;17.004;2023-06-22T06:03:07;100488.53;;;27.81;51.10
47284;BME280;33017;51.074;17.004;2023-06-22T06:05:34;100492.16;;;27.82;51.19
47284;BME280;33017;51.074;17.004;2023-06-22T06:08:02;100486.63;;;27.82;51.12
47284;BME280;33017;51.074;17.004;2023-06-22T06:10:29;100491.38;;;27.86;50.92
47284;BME280;33017;51.074;17.004;2023-06-22T06:12:57;100501.94;;;27.89;50.91
47284;BME280;33017;51.074;17.004;2023-06-22T06:15:24;100495.06;;;27.92;50.62
47284;BME280;33017;51.074;17.004;2023-06-22T06:17:51;100497.34;;;27.95;50.86
47284;BME280;33017;51.074;17.004;2023-06-22T06:20:19;100500.69;;;27.97;50.93
47284;BME280;33017;51.074;17.004;2023-06-22T06:22:45;100505.38;;;27.96;50.59
47284;BME280;33017;51.074;17.004;2023-06-22T06:25:13;100508.72;;;27.98;50.46
47284;BME280;33017;51.074;17.004;2023-06-22T06:27:43;100506.91;;;28.04;50.54
47284;BME280;33017;51.074;17.004;2023-06-22T06:30:10;100499.22;;;28.06;50.78
47284;BME280;33017;51.074;17.004;2023-06-22T06:32:37;100501.50;;;28.09;50.60
47284;BME280;33017;51.074;17.004;2023-06-22T06:35:08;100506.75;;;28.10;50.54
47284;BME280;33017;51.074;17.004;2023-06-22T06:37:36;100502.91;;;28.11;50.47
47284;BME280;33017;51.074;17.004;2023-06-22T06:40:04;100506.75;;;28.10;50.43
47284;BME280;33017;51.074;17.004;2023-06-22T06:42:41;100503.50;;;28.13;50.16
47284;BME280;33017;51.074;17.004;2023-06-22T06:45:08;100488.59;;;28.15;49.85
47284;BME280;33017;51.074;17.004;2023-06-22T06:47:35;100497.44;;;28.17;50.03
47284;BME280;33017;51.074;17.004;2023-06-22T06:50:03;100499.13;;;28.18;50.06
47284;BME280;33017;51.074;17.004;2023-06-22T06:52:30;100504.97;;;28.21;50.32
47284;BME280;33017;51.074;17.004;2023-06-22T06:54:57;100504.97;;;28.21;50.19
47284;BME280;33017;51.074;17.004;2023-06-22T06:57:24;100504.81;;;28.28;50.17
47284;BME280;33017;51.074;17.004;2023-06-22T06:59:57;100507.19;;;28.36;49.96
47284;BME280;33017;51.074;17.004;2023-06-22T07:02:25;100520.00;;;28.42;49.89
47284;BME280;33017;51.074;17.004;2023-06-22T07:04:52;100521.72;;;28.48;49.83
47284;BME280;33017;51.074;17.004;2023-06-22T07:07:19;100523.97;;;28.51;49.54
47284;BME280;33017;51.074;17.004;2023-06-22T07:09:46;100527.06;;;28.54;49.65
47284;BME280;33017;51.074;17.004;2023-06-22T07:12:12;100529.59;;;28.56;49.50
47284;BME280;33017;51.074;17.004;2023-06-22T07:14:39;100528.75;;;28.55;49.42
47284;BME280;33017;51.074;17.004;2023-06-22T07:17:06;100531.88;;;28.59;49.52
47284;BME280;33017;51.074;17.004;2023-06-22T07:19:33;100538.56;;;28.63;49.49
47284;BME280;33017;51.074;17.004;2023-06-22T07:22:00;100535.56;;;28.64;49.48
47284;BME280;33017;51.074;17.004;2023-06-22T07:24:27;100536.63;;;28.63;49.40
47284;BME280;33017;51.074;17.004;2023-06-22T07:26:54;100531.34;;;28.62;49.25
47284;BME280;33017;51.074;17.004;2023-06-22T07:29:20;100529.44;;;28.62;49.62
47284;BME280;33017;51.074;17.004;2023-06-22T07:31:48;100530.25;;;28.63;49.53
47284;BME280;33017;51.074;17.004;2023-06-22T07:34:16;100533.00;;;28.63;49.48
47284;BME280;33017;51.074;17.004;2023-06-22T07:36:44;100525.56;;;28.63;49.56
47284;BME280;33017;51.074;17.004;2023-06-22T07:39:10;100536.16;;;28.66;49.67
47284;BME280;33017;51.074;17.004;2023-06-22T07:41:38;100529.03;;;28.71;49.54
47284;BME280;33017;51.074;17.004;2023-06-22T07:44:05;100528.13;;;28.65;49.76
47284;BME280;33017;51.074;17.004;2023-06-22T07:46:32;100528.31;;;28.63;49.82
47284;BME280;33017;51.074;17.004;2023-06-22T07:48:59;100529.69;;;28.61;50.12
47284;BME280;33017;51.074;17.004;2023-06-22T07:51:27;100538.34;;;28.64;49.94
47284;BME280;33017;51.074;17.004;2023-06-22T07:53:54;100539.19;;;28.65;49.83
47284;BME280;33017;51.074;17.004;2023-06-22T07:56:21;100525.81;;;28.62;49.96
47284;BME280;33017;51.074;17.004;2023-06-22T07:58:48;100526.91;;;28.61;49.83
47284;BME280;33017;51.074;17.004;2023-06-22T08:01:14;100521.63;;;28.59;49.91
47284;BME280;33017;51.074;17.004;2023-06-22T08:03:41;100518.28;;;28.57;49.97
47284;BME280;33017;51.074;17.004;2023-06-22T08:06:08;100514.66;;;28.57;49.98
47284;BME280;33017;51.074;17.004;2023-06-22T08:08:35;100466.03;;;28.23;49.74
47284;BME280;33017;51.074;17.004;2023-06-22T08:11:02;100509.91;;;28.52;49.87
47284;BME280;33017;51.074;17.004;2023-06-22T08:13:29;100513.75;;;28.51;50.14
47284;BME280;33017;51.074;17.004;2023-06-22T08:15:56;100512.34;;;28.49;49.84
47284;BME280;33017;51.074;17.004;2023-06-22T08:18:23;100516.19;;;28.48;49.88
47284;BME280;33017;51.074;17.004;2023-06-22T08:20:49;100509.56;;;28.49;50.19
47284;BME280;33017;51.074;17.004;2023-06-22T08:23:16;100509.84;;;28.47;49.93
47284;BME280;33017;51.074;17.004;2023-06-22T08:25:43;100511.75;;;28.47;50.00
47284;BME280;33017;51.074;17.004;2023-06-22T08:28:10;100498.78;;;28.47;50.05
47284;BME280;33017;51.074;17.004;2023-06-22T08:30:37;100492.38;;;28.47;50.16
47284;BME280;33017;51.074;17.004;2023-06-22T08:33:04;100487.38;;;28.44;50.30
47284;BME280;33017;51.074;17.004;2023-06-22T08:35:31;100482.91;;;28.43;50.02
47284;BME280;33017;51.074;17.004;2023-06-22T08:37:58;100481.56;;;28.45;50.19
47284;BME280;33017;51.074;17.004;2023-06-22T08:40:26;100485.44;;;28.44;50.29
47284;BME280;33017;51.074;17.004;2023-06-22T08:42:53;100486.53;;;28.43;50.06
47284;BME280;33017;51.074;17.004;2023-06-22T08:45:20;100482.06;;;28.42;50.19
47284;BME280;33017;51.074;17.004;2023-06-22T08:47:47;100476.03;;;28.45;49.89
47284;BME280;33017;51.074;17.004;2023-06-22T08:50:14;100476.88;;;28.46;50.09
47284;BME280;33017;51.074;17.004;2023-06-22T08:52:40;100481.56;;;28.45;50.11
47284;BME280;33017;51.074;17.004;2023-06-22T08:55:08;100484.09;;;28.47;49.75
47284;BME280;33017;51.074;17.004;2023-06-22T08:57:35;100477.72;;;28.46;49.78
47284;BME280;33017;51.074;17.004;2023-06-22T09:00:06;100477.44;;;28.48;49.96
47284;BME280;33017;51.074;17.004;2023-06-22T09:02:38;100482.16;;;28.47;49.94
47284;BME280;33017;51.074;17.004;2023-06-22T09:05:07;100479.41;;;28.47;49.80
47284;BME280;33017;51.074;17.004;2023-06-22T09:07:34;100481.06;;;28.48;49.72
47284;BME280;33017;51.074;17.004;2023-06-22T09:10:01;100480.22;;;28.48;49.73
47284;BME280;33017;51.074;17.004;2023-06-22T09:12:30;100481.91;;;28.49;49.88
47284;BME280;33017;51.074;17.004;2023-06-22T09:14:57;100468.91;;;28.49;49.62
47284;BME280;33017;51.074;17.004;2023-06-22T09:17:24;100485.22;;;28.51;49.71
47284;BME280;33017;51.074;17.004;2023-06-22T09:19:50;100480.81;;;28.50;49.64
47284;BME280;33017;51.074;17.004;2023-06-22T09:22:17;100475.28;;;28.50;49.94
47284;BME280;33017;51.074;17.004;2023-06-22T09:24:44;100482.75;;;28.49;49.76
47284;BME280;33017;51.074;17.004;2023-06-22T09:27:10;100482.22;;;28.52;49.63
47284;BME280;33017;51.074;17.004;2023-06-22T09:29:37;100484.50;;;28.55;50.30
47284;BME280;33017;51.074;17.004;2023-06-22T09:32:04;100481.78;;;28.77;49.58
47284;BME280;33017;51.074;17.004;2023-06-22T09:34:31;100487.81;;;28.96;49.39
47284;BME280;33017;51.074;17.004;2023-06-22T09:36:58;100486.59;;;29.08;49.49
47284;BME280;33017;51.074;17.004;2023-06-22T09:39:27;100481.75;;;29.20;49.55
47284;BME280;33017;51.074;17.004;2023-06-22T09:41:53;100482.19;;;29.34;49.56
47284;BME280;33017;51.074;17.004;2023-06-22T09:44:20;100473.69;;;29.41;49.99
47284;BME280;33017;51.074;17.004;2023-06-22T09:46:47;100476.28;;;29.52;49.60
47284;BME280;33017;51.074;17.004;2023-06-22T09:49:14;100461.19;;;29.65;49.34
47284;BME280;33017;51.074;17.004;2023-06-22T09:51:40;100461.22;;;29.70;49.65
47284;BME280;33017;51.074;17.004;2023-06-22T09:54:07;100459.63;;;29.79;49.22
47284;BME280;33017;51.074;17.004;2023-06-22T09:56:34;100470.31;;;29.87;49.28
47284;BME280;33017;51.074;17.004;2023-06-22T09:59:00;100465.34;;;29.94;49.39
47284;BME280;33017;51.074;17.004;2023-06-22T10:01:42;100473.69;;;29.99;49.20
47284;BME280;33017;51.074;17.004;2023-06-22T10:04:09;100480.06;;;29.95;48.63
47284;BME280;33017;51.074;17.004;2023-06-22T10:06:36;100477.41;;;29.78;49.11
47284;BME280;33017;51.074;17.004;2023-06-22T10:09:03;100471.72;;;29.90;48.87
47284;BME280;33017;51.074;17.004;2023-06-22T10:11:30;100476.47;;;29.99;49.32
47284;BME280;33017;51.074;17.004;2023-06-22T10:13:58;100460.44;;;30.06;49.24
47284;BME280;33017;51.074;17.004;2023-06-22T10:16:30;100462.44;;;30.11;49.53
47284;BME280;33017;51.074;17.004;2023-06-22T10:18:57;100447.75;;;30.15;49.34
47284;BME280;33017;51.074;17.004;2023-06-22T10:21:23;100451.50;;;29.99;47.80
47284;BME280;33017;51.074;17.004;2023-06-22T10:23:50;100449.22;;;29.86;47.02
47284;BME280;33017;51.074;17.004;2023-06-22T10:26:17;100446.41;;;29.81;46.28
47284;BME280;33017;51.074;17.004;2023-06-22T10:28:44;100433.78;;;29.68;45.40
47284;BME280;33017;51.074;17.004;2023-06-22T10:31:11;100431.50;;;29.60;45.62
47284;BME280;33017;51.074;17.004;2023-06-22T10:33:38;100425.09;;;29.60;45.51
47284;BME280;33017;51.074;17.004;2023-06-22T10:36:04;100433.47;;;29.65;44.90
47284;BME280;33017;51.074;17.004;2023-06-22T10:38:31;100429.75;;;29.81;45.14
47284;BME280;33017;51.074;17.004;2023-06-22T10:40:58;100430.88;;;29.85;45.80
47284;BME280;33017;51.074;17.004;2023-06-22T10:43:25;100420.41;;;29.60;45.91
47284;BME280;33017;51.074;17.004;2023-06-22T10:45:51;100412.31;;;29.54;46.05
47284;BME280;33017;51.074;17.004;2023-06-22T10:48:18;100422.56;;;29.53;45.91
47284;BME280;33017;51.074;17.004;2023-06-22T10:50:46;100417.00;;;29.53;46.06
47284;BME280;33017;51.074;17.004;2023-06-22T10:53:13;100417.25;;;29.52;45.81
47284;BME280;33017;51.074;17.004;2023-06-22T10:55:40;100419.47;;;29.50;45.85
47284;BME280;33017;51.074;17.004;2023-06-22T10:58:12;100419.16;;;29.46;45.78
47284;BME280;33017;51.074;17.004;2023-06-22T11:00:39;100403.88;;;29.44;45.89
47284;BME280;33017;51.074;17.004;2023-06-22T11:03:05;100406.41;;;29.45;46.31
47284;BME280;33017;51.074;17.004;2023-06-22T11:05:32;100412.47;;;29.42;46.29
47284;BME280;33017;51.074;17.004;2023-06-22T11:07:59;100406.94;;;29.42;46.55
47284;BME280;33017;51.074;17.004;2023-06-22T11:10:26;100409.38;;;29.39;46.67
47284;BME280;33017;51.074;17.004;2023-06-22T11:12:53;100409.97;;;29.41;46.49
47284;BME280;33017;51.074;17.004;2023-06-22T11:15:22;100409.38;;;29.39;46.58
47284;BME280;33017;51.074;17.004;2023-06-22T11:17:48;100403.56;;;29.40;46.69
47284;BME280;33017;51.074;17.004;2023-06-22T11:20:15;100409.63;;;29.37;46.66
47284;BME280;33017;51.074;17.004;2023-06-22T11:22:42;100406.06;;;29.37;46.57
47284;BME280;33017;51.074;17.004;2023-06-22T11:25:09;100394.38;;;29.35;46.84
47284;BME280;33017;51.074;17.004;2023-06-22T11:27:37;100402.38;;;29.31;46.61
47284;BME280;33017;51.074;17.004;2023-06-22T11:30:04;100395.50;;;29.34;46.84
47284;BME280;33017;51.074;17.004;2023-06-22T11:32:31;100398.28;;;29.34;46.72
47284;BME280;33017;51.074;17.004;2023-06-22T11:34:58;100397.66;;;29.32;46.97
47284;BME280;33017;51.074;17.004;2023-06-22T11:37:25;100393.78;;;29.28;46.97
47284;BME280;33017;51.074;17.004;2023-06-22T11:39:52;100390.16;;;29.27;46.76
47284;BME280;33017;51.074;17.004;2023-06-22T11:42:31;100390.41;;;29.26;47.06
47284;BME280;33017;51.074;17.004;2023-06-22T11:44:58;100397.88;;;29.25;46.92
47284;BME280;33017;51.074;17.004;2023-06-22T11:47:25;100393.47;;;29.24;46.91
47284;BME280;33017;51.074;17.004;2023-06-22T11:49:52;100392.81;;;29.22;47.33
47284;BME280;33017;51.074;17.004;2023-06-22T11:52:19;100387.56;;;29.20;47.28
47284;BME280;33017;51.074;17.004;2023-06-22T11:54:46;100388.41;;;29.21;47.19
47284;BME280;33017;51.074;17.004;2023-06-22T11:57:13;100380.34;;;29.19;47.88
47284;BME280;33017;51.074;17.004;2023-06-22T11:59:40;100375.31;;;29.16;48.07
47284;BME280;33017;51.074;17.004;2023-06-22T12:02:07;100376.47;;;29.20;48.16
47284;BME280;33017;51.074;17.004;2023-06-22T12:04:34;100374.28;;;29.22;47.97
47284;BME280;33017;51.074;17.004;2023-06-22T12:07:00;100366.78;;;29.18;48.31
47284;BME280;33017;51.074;17.004;2023-06-22T12:09:27;100369.78;;;29.16;48.67
47284;BME280;33017;51.074;17.004;2023-06-22T12:11:54;100359.22;;;29.13;48.51
47284;BME280;33017;51.074;17.004;2023-06-22T12:14:21;100353.09;;;29.06;48.93
47284;BME280;33017;51.074;17.004;2023-06-22T12:16:48;100347.53;;;29.06;48.64
47284;BME280;33017;51.074;17.004;2023-06-22T12:19:14;100342.56;;;29.08;48.54
47284;BME280;33017;51.074;17.004;2023-06-22T12:21:41;100347.53;;;29.06;48.72
47284;BME280;33017;51.074;17.004;2023-06-22T12:24:11;100340.59;;;29.04;48.64
47284;BME280;33017;51.074;17.004;2023-06-22T12:26:38;100337.31;;;29.07;48.83
47284;BME280;33017;51.074;17.004;2023-06-22T12:29:05;100344.25;;;29.09;48.59
47284;BME280;33017;51.074;17.004;2023-06-22T12:31:32;100341.72;;;29.08;48.73
47284;BME280;33017;51.074;17.004;2023-06-22T12:33:58;100339.47;;;29.05;48.83
47284;BME280;33017;51.074;17.004;2023-06-22T12:36:25;100339.25;;;29.06;49.13
47284;BME280;33017;51.074;17.004;2023-06-22T12:38:52;100338.09;;;29.02;48.84
47284;BME280;33017;51.074;17.004;2023-06-22T12:41:19;100335.63;;;29.06;49.29
47284;BME280;33017;51.074;17.004;2023-06-22T12:43:46;100334.00;;;29.10;49.54
47284;BME280;33017;51.074;17.004;2023-06-22T12:46:13;100333.41;;;29.08;49.49
47284;BME280;33017;51.074;17.004;2023-06-22T12:48:40;100327.31;;;29.06;49.28